Time;durP1;ratioP1;P1;durP2;ratioP2;P2;SDS_P1;SDS_P2;PMS_P1;PMS_P2;Temp;Humidity;BMP_temperature;BMP_pressure;BME280_temperature;BME280_humidity;BME280_pressure;Samples;Min_cycle;Max_cycle;Signal;HPM_P1;HPM_P2
2021/04/13 00:00:23;;;;;;;5.90;2.27;;;2.60;75.50;;;;;;5075720;28;20376;-77
2021/04/13 00:02:53;;;;;;;9.50;2.70;;;2.60;75.60;;;;;;5058382;28;20032;-77
2021/04/13 00:05:41;;;;;;;5.47;2.43;;;2.60;76.00;;;;;;5058382;28;20024;-77
2021/04/13 00:08:15;;;;;;;5.83;1.83;;;2.60;76.00;;;;;;5057597;28;20017;-77
2021/04/13 00:10:43;;;;;;;;;;;2.60;76.10;;;;;;5058454;28;20059;-77
2021/04/13 00:13:10;;;;;;;6.27;2.13;;;2.60;76.40;;;;;;5058138;28;19957;-77
2021/04/13 00:15:44;;;;;;;7.73;2.17;;;2.50;76.30;;;;;;5058222;28;20029;-77
2021/04/13 00:18:13;;;;;;;8.40;2.40;;;2.50;76.40;;;;;;5075957;28;20031;-77
2021/04/13 00:20:43;;;;;;;7.53;2.17;;;2.50;76.40;;;;;;5057368;28;20024;-77
2021/04/13 00:23:09;;;;;;;6.43;2.30;;;2.50;76.70;;;;;;5075797;28;20016;-77
2021/04/13 00:25:44;;;;;;;7.23;2.07;;;2.40;77.10;;;;;;5040792;28;20025;-77
2021/04/13 00:28:10;;;;;;;9.50;2.97;;;2.40;77.60;;;;;;5075703;28;20031;-77
2021/04/13 00:30:48;;;;;;;7.43;2.17;;;2.50;78.10;;;;;;5057426;28;20458;-77
2021/04/13 00:33:17;;;;;;;11.23;2.53;;;2.50;78.20;;;;;;5057376;28;20028;-77
2021/04/13 00:35:49;;;;;;;8.00;2.43;;;2.50;78.80;;;;;;5075506;28;20029;-77
2021/04/13 00:38:31;;;;;;;7.87;2.10;;;2.60;79.70;;;;;;5075539;28;20461;-77
2021/04/13 00:41:26;;;;;;;8.07;2.27;;;2.60;79.70;;;;;;5075194;28;20476;-77
2021/04/13 00:43:59;;;;;;;9.05;2.30;;;2.60;79.80;;;;;;5056755;28;20372;-77
2021/04/13 00:46:37;;;;;;;6.77;2.50;;;2.70;80.90;;;;;;5057300;28;20109;-77
2021/04/13 00:49:04;;;;;;;4.63;1.83;;;2.70;80.70;;;;;;5075217;28;20027;-77
2021/04/13 00:51:38;;;;;;;6.23;2.20;;;2.70;80.50;;;;;;5075076;28;20035;-77
2021/04/13 00:54:12;;;;;;;6.53;2.50;;;2.70;80.90;;;;;;5057278;28;20078;-77
2021/04/13 00:56:39;;;;;;;5.90;1.90;;;2.70;80.20;;;;;;5075046;28;20031;-77
2021/04/13 00:59:15;;;;;;;6.73;2.10;;;2.60;80.00;;;;;;5056708;28;20395;-77
2021/04/13 01:01:43;;;;;;;6.00;2.00;;;2.60;80.40;;;;;;5057048;28;20021;-77
2021/04/13 01:04:16;;;;;;;5.80;2.33;;;2.60;80.30;;;;;;5074935;28;20024;-77
2021/04/13 01:06:42;;;;;;;6.17;2.20;;;2.60;80.30;;;;;;5056600;28;20020;-79
2021/04/13 01:09:24;;;;;;;6.07;1.63;;;2.50;80.10;;;;;;5056616;28;20078;-77
2021/04/13 01:12:04;;;;;;;7.73;2.03;;;2.40;80.30;;;;;;5074755;28;20024;-77
2021/04/13 01:14:31;;;;;;;5.73;2.10;;;2.50;80.70;;;;;;5056747;28;20020;-77
2021/04/13 01:17:05;;;;;;;9.03;2.30;;;2.50;80.50;;;;;;5074663;28;20028;-77
2021/04/13 01:19:36;;;;;;;5.22;0.98;;;2.50;80.60;;;;;;5055473;28;20027;-77
2021/04/13 01:22:24;;;;;;;7.03;1.97;;;2.60;81.00;;;;;;5074479;28;20024;-77
2021/04/13 01:24:52;;;;;;;7.47;2.30;;;2.60;81.00;;;;;;5051141;28;20037;-77
2021/04/13 01:27:20;;;;;;;6.53;1.70;;;2.60;81.20;;;;;;5056666;28;20082;-77
2021/04/13 01:29:48;;;;;;;4.70;1.97;;;2.70;81.10;;;;;;5074163;28;20029;-77
2021/04/13 01:32:16;;;;;;;5.43;1.67;;;2.70;81.30;;;;;;5056348;28;20032;-77
2021/04/13 01:34:44;;;;;;;7.57;1.60;;;2.70;81.50;;;;;;5073971;28;20391;-77
2021/04/13 01:40:17;;;;;;;3.27;1.60;;;2.70;81.70;;;;;;5074177;28;20493;-77
2021/04/13 01:42:44;;;;;;;4.30;1.57;;;2.70;81.90;;;;;;5052497;28;20451;-77
2021/04/13 01:45:16;;;;;;;5.67;1.47;;;2.70;81.60;;;;;;5054247;28;20044;-77
2021/04/13 01:47:43;;;;;;;4.93;1.63;;;2.70;81.90;;;;;;5052498;28;20017;-77
2021/04/13 01:50:14;;;;;;;5.93;1.10;;;2.70;81.20;;;;;;5052562;28;20153;-77
2021/04/13 01:52:42;;;;;;;3.27;1.27;;;2.70;81.20;;;;;;5053908;28;20423;-77
2021/04/13 01:55:15;;;;;;;4.80;1.17;;;2.70;81.30;;;;;;5052951;28;20392;-77
2021/04/13 01:57:51;;;;;;;7.60;1.30;;;2.60;81.40;;;;;;5054011;28;20037;-77
2021/04/13 02:00:38;;;;;;;6.33;1.57;;;2.60;81.50;;;;;;5052216;28;20028;-77
2021/04/13 02:03:15;;;;;;;4.30;1.03;;;2.60;81.60;;;;;;5052472;28;20021;-77
2021/04/13 02:05:44;;;;;;;4.90;1.20;;;2.50;81.50;;;;;;5053499;28;20021;-77
2021/04/13 02:08:25;;;;;;;3.57;1.20;;;2.50;81.40;;;;;;5052522;28;20036;-77
2021/04/13 02:11:02;;;;;;;6.00;1.47;;;2.50;81.40;;;;;;5053337;28;20108;-77
2021/04/13 02:13:36;;;;;;;3.87;1.10;;;2.40;81.50;;;;;;5053311;28;20439;-77
2021/04/13 02:16:24;;;;;;;4.93;1.30;;;2.40;81.80;;;;;;5052184;28;20119;-77
2021/04/13 02:18:52;;;;;;;4.33;1.37;;;2.30;81.80;;;;;;5053750;28;20445;-76
2021/04/13 02:21:19;;;;;;;3.70;1.33;;;2.30;82.20;;;;;;5053498;28;20095;-76
2021/04/13 02:23:52;;;;;;;4.97;1.70;;;2.30;82.10;;;;;;5053510;28;20029;-77
2021/04/13 02:26:19;;;;;;;5.97;1.45;;;2.20;82.30;;;;;;5053579;28;20138;-77
2021/04/13 02:28:46;;;;;;;6.53;1.30;;;2.20;82.60;;;;;;5052285;28;20540;-77
2021/04/13 02:31:36;;;;;;;7.00;1.10;;;2.20;82.90;;;;;;5052716;28;20047;-76
2021/04/13 02:34:13;;;;;;;2.97;1.20;;;2.20;83.10;;;;;;5052269;28;20101;-76
2021/04/13 02:36:40;;;;;;;7.30;1.80;;;2.10;83.40;;;;;;5053132;28;20031;-77
2021/04/13 02:39:11;;;;;;;3.43;1.20;;;2.10;83.50;;;;;;5052072;28;20021;-77
2021/04/13 02:41:51;;;;;;;6.90;1.30;;;2.10;83.00;;;;;;5051895;28;20084;-77
2021/04/13 02:44:20;;;;;;;4.27;1.60;;;2.00;82.90;;;;;;5053533;28;20032;-77
2021/04/13 02:46:49;;;;;;;6.87;2.03;;;2.00;83.00;;;;;;5053236;28;20531;-77
2021/04/13 02:49:18;;;;;;;4.07;1.10;;;2.00;83.00;;;;;;5053035;28;20036;-77
2021/04/13 02:52:06;;;;;;;6.67;1.60;;;1.90;83.10;;;;;;5052806;28;20435;-77
2021/04/13 02:54:52;;;;;;;5.87;1.40;;;1.90;83.10;;;;;;5052936;28;20033;-77
2021/04/13 02:57:21;;;;;;;4.93;1.33;;;1.90;83.30;;;;;;5051404;28;20074;-77
2021/04/13 02:59:47;;;;;;;5.73;1.33;;;1.90;83.70;;;;;;5051700;28;20481;-76
2021/04/13 03:02:37;;;;;;;9.10;1.60;;;1.90;83.20;;;;;;5053438;28;20059;-76
2021/04/13 03:05:04;;;;;;;5.43;1.57;;;1.90;83.30;;;;;;5053158;28;20022;-77
2021/04/13 03:07:32;;;;;;;3.97;1.40;;;1.90;83.60;;;;;;5052000;28;20021;-77
2021/04/13 03:10:10;;;;;;;6.20;1.80;;;1.80;83.90;;;;;;5053440;28;20025;-76
2021/04/13 03:12:43;;;;;;;5.50;1.53;;;1.80;84.10;;;;;;5051732;28;20017;-77
2021/04/13 03:15:13;;;;;;;5.70;1.93;;;1.70;84.40;;;;;;5051385;28;20025;-77
2021/04/13 03:17:45;;;;;;;7.33;1.70;;;1.70;84.70;;;;;;5051484;28;20380;-77
2021/04/13 03:20:14;;;;;;;9.07;1.90;;;1.70;84.10;;;;;;5052938;28;20036;-77
2021/04/13 03:22:41;;;;;;;9.37;2.33;;;1.70;84.10;;;;;;5051674;28;20018;-78
2021/04/13 03:25:09;;;;;;;13.27;3.00;;;1.60;84.10;;;;;;5053057;28;20018;-78
2021/04/13 03:27:38;;;;;;;6.43;2.43;;;1.60;84.90;;;;;;5053166;28;20345;-77
2021/04/13 03:30:11;;;;;;;3.43;1.93;;;1.60;85.00;;;;;;5052766;28;20033;-78
2021/04/13 03:32:49;;;;;;;9.40;1.52;;;1.60;84.70;;;;;;5052557;28;20024;-78
2021/04/13 03:35:15;;;;;;;5.17;1.90;;;1.60;84.70;;;;;;5052789;28;20035;-78
2021/04/13 03:37:43;;;;;;;5.93;2.67;;;1.60;84.80;;;;;;5051915;28;20111;-77
2021/04/13 03:40:13;;;;;;;5.57;2.00;;;1.60;85.10;;;;;;5051601;28;20455;-77
2021/04/13 03:42:39;;;;;;;7.03;2.03;;;1.60;85.20;;;;;;5052705;28;20048;-77
2021/04/13 03:45:12;;;;;;;12.43;2.80;;;1.60;85.50;;;;;;5056295;28;20033;-78
2021/04/13 03:47:39;;;;;;;5.13;2.20;;;1.60;85.30;;;;;;5056267;28;20483;-78
2021/04/13 03:50:14;;;;;;;5.37;2.13;;;1.60;85.40;;;;;;5038827;28;20536;-78
2021/04/13 03:52:40;;;;;;;5.13;2.60;;;1.60;85.50;;;;;;5054913;28;20098;-78
2021/04/13 03:55:20;;;;;;;11.00;2.60;;;1.60;85.50;;;;;;5054787;28;20472;-78
2021/04/13 03:57:46;;;;;;;9.17;2.67;;;1.60;85.70;;;;;;5055907;28;20025;-78
2021/04/13 04:00:20;;;;;;;6.03;2.60;;;1.60;85.70;;;;;;5054994;28;20032;-78
2021/04/13 04:02:46;;;;;;;5.40;2.78;;;1.60;85.80;;;;;;5055632;28;20060;-76
2021/04/13 04:05:18;;;;;;;5.83;2.40;;;1.50;85.70;;;;;;5055911;28;20067;-77
2021/04/13 04:07:58;;;;;;;7.07;2.83;;;1.60;85.60;;;;;;5054392;28;20353;-77
2021/04/13 04:10:35;;;;;;;9.50;2.50;;;1.60;85.50;;;;;;5054592;28;20032;-76
2021/04/13 04:13:24;;;;;;;5.43;2.10;;;1.60;85.60;;;;;;5055813;28;20472;-77
2021/04/13 04:16:12;;;;;;;9.40;3.03;;;1.60;85.70;;;;;;5054510;28;20025;-79
2021/04/13 04:18:41;;;;;;;6.93;2.53;;;1.60;85.90;;;;;;5054128;28;20065;-76
2021/04/13 04:21:25;;;;;;;9.07;2.53;;;1.60;86.00;;;;;;5054789;28;20025;-76
2021/04/13 04:23:58;;;;;;;6.40;2.77;;;1.60;85.90;;;;;;5055923;28;20033;-77
2021/04/13 04:26:27;;;;;;;5.57;2.37;;;1.60;86.10;;;;;;5055714;28;20029;-77
2021/04/13 04:28:55;;;;;;;5.27;2.47;;;1.50;86.00;;;;;;5055755;28;20029;-76
2021/04/13 04:31:35;;;;;;;7.60;2.90;;;1.50;86.10;;;;;;5054406;28;20376;-77
2021/04/13 04:34:20;;;;;;;7.03;2.50;;;1.50;86.30;;;;;;5055325;28;20516;-77
2021/04/13 04:36:56;;;;;;;4.97;2.13;;;1.50;86.60;;;;;;5054208;28;20349;-77
2021/04/13 04:39:32;;;;;;;14.10;2.67;;;1.40;86.40;;;;;;5055635;28;20028;-77
2021/04/13 04:42:28;;;;;;;5.80;2.20;;;1.40;86.50;;;;;;5066725;28;20056;-77
2021/04/13 04:45:16;;;;;;;5.63;2.60;;;1.40;86.90;;;;;;5046166;28;20064;-77
2021/04/13 04:47:44;;;;;;;5.50;2.43;;;1.40;86.60;;;;;;5075104;28;20028;-76
2021/04/13 04:50:12;;;;;;;10.00;2.73;;;1.40;86.80;;;;;;5075092;28;20035;-77
2021/04/13 04:52:38;;;;;;;5.07;2.40;;;1.40;86.70;;;;;;5074528;28;20043;-77
2021/04/13 04:55:04;;;;;;;8.73;3.70;;;1.40;87.10;;;;;;5057106;28;20032;-77
2021/04/13 04:57:30;;;;;;;7.10;2.60;;;1.30;87.20;;;;;;5055793;28;20036;-76
2021/04/13 04:59:56;;;;;;;10.07;2.70;;;1.30;87.20;;;;;;5023186;28;20048;-76
2021/04/13 05:02:21;;;;;;;11.03;3.17;;;1.30;87.30;;;;;;5056701;28;20455;-77
2021/04/13 05:04:47;;;;;;;9.63;2.97;;;1.30;87.30;;;;;;5056867;28;20032;-76
2021/04/13 05:07:13;;;;;;;7.57;3.17;;;1.30;87.60;;;;;;5074481;28;20108;-77
2021/04/13 05:09:41;;;;;;;7.67;3.03;;;1.30;87.60;;;;;;5056987;28;20444;-78
2021/04/13 05:12:07;;;;;;;9.93;2.77;;;1.30;87.50;;;;;;5056887;28;20135;-77
2021/04/13 05:14:33;;;;;;;9.27;2.37;;;1.40;87.60;;;;;;5056446;28;20032;-77
2021/04/13 05:16:59;;;;;;;8.60;3.40;;;1.40;87.60;;;;;;5056740;28;20027;-76
2021/04/13 05:19:25;;;;;;;6.83;2.50;;;1.40;87.60;;;;;;5074018;28;20032;-77
2021/04/13 05:21:51;;;;;;;8.13;3.03;;;1.40;87.70;;;;;;5074644;28;20035;-76
2021/04/13 05:24:16;;;;;;;6.73;2.97;;;1.40;87.70;;;;;;5056661;28;20040;-77
2021/04/13 05:26:42;;;;;;;8.10;3.53;;;1.40;87.90;;;;;;5056739;28;20025;-77
2021/04/13 05:29:08;;;;;;;6.33;3.27;;;1.40;88.00;;;;;;5074491;28;20032;-77
2021/04/13 05:31:35;;;;;;;6.80;3.10;;;1.40;89.10;;;;;;5056157;28;20434;-77
2021/04/13 05:34:01;;;;;;;11.27;3.53;;;1.40;89.00;;;;;;5056284;28;20060;-78
2021/04/13 05:36:27;;;;;;;12.17;3.40;;;1.40;88.90;;;;;;5041725;28;20387;-78
2021/04/13 05:38:53;;;;;;;10.23;3.57;;;1.40;88.80;;;;;;5075734;28;20104;-78
2021/04/13 05:41:19;;;;;;;6.73;3.13;;;1.40;89.20;;;;;;5076223;28;20054;-78
2021/04/13 05:43:45;;;;;;;8.93;3.27;;;1.50;89.00;;;;;;5075895;28;20442;-77
2021/04/13 05:46:20;;;;;;;11.70;3.47;;;1.50;88.90;;;;;;5076313;28;20134;-78
2021/04/13 05:48:45;;;;;;;9.90;3.60;;;1.50;88.80;;;;;;5094497;28;20033;-77
2021/04/13 05:51:11;;;;;;;9.37;3.33;;;1.50;88.60;;;;;;5094253;28;20035;-77
2021/04/13 05:53:37;;;;;;;11.63;3.60;;;1.60;88.80;;;;;;5094465;28;20467;-77
2021/04/13 05:56:03;;;;;;;8.37;4.17;;;1.60;89.00;;;;;;5093965;28;20069;-77
2021/04/13 05:58:35;;;;;;;7.07;3.43;;;1.60;89.00;;;;;;5076101;28;20053;-77
2021/04/13 06:01:05;;;;;;;11.20;3.77;;;1.70;89.10;;;;;;5093803;28;20415;-77
2021/04/13 06:03:32;;;;;;;10.60;3.57;;;1.70;89.10;;;;;;5093662;28;20024;-77
2021/04/13 06:05:58;;;;;;;7.57;3.60;;;1.70;89.30;;;;;;5093372;28;20682;-77
2021/04/13 06:08:24;;;;;;;7.70;3.13;;;1.60;89.00;;;;;;5093699;28;20051;-77
2021/04/13 06:10:53;;;;;;;13.50;3.10;;;1.80;89.50;;;;;;5059013;28;20089;-78
2021/04/13 06:13:18;;;;;;;12.97;3.50;;;1.80;89.70;;;;;;5075391;28;20506;-76
2021/04/13 06:15:44;;;;;;;9.57;3.60;;;1.90;89.70;;;;;;5093687;28;20027;-77
2021/04/13 06:18:10;;;;;;;9.83;2.80;;;1.90;89.80;;;;;;5075004;28;20032;-77
2021/04/13 06:20:35;;;;;;;10.70;3.43;;;1.90;89.70;;;;;;5075230;28;20020;-78
2021/04/13 06:23:01;;;;;;;8.00;3.07;;;2.00;89.80;;;;;;5075487;28;20020;-78
2021/04/13 06:25:30;;;;;;;7.00;2.93;;;2.00;89.80;;;;;;5075241;28;20020;-77
2021/04/13 06:27:57;;;;;;;6.90;3.23;;;2.10;89.80;;;;;;5093156;28;20097;-78
2021/04/13 06:30:24;;;;;;;9.53;3.13;;;2.20;89.70;;;;;;5058621;28;20107;-77
2021/04/13 06:32:50;;;;;;;8.00;3.00;;;2.30;90.00;;;;;;5075191;28;20483;-76
2021/04/13 06:35:17;;;;;;;8.87;3.50;;;2.30;89.80;;;;;;5092974;28;20039;-78
2021/04/13 06:37:44;;;;;;;6.97;3.40;;;2.40;90.00;;;;;;5075158;28;20027;-78
2021/04/13 06:40:34;;;;;;;11.27;3.23;;;2.50;90.00;;;;;;5092765;28;20063;-80
2021/04/13 06:43:40;;;;;;;12.53;4.07;;;2.60;90.10;;;;;;5074775;28;20498;-79
2021/04/13 06:46:36;;;;;;;6.00;3.10;;;2.60;90.10;;;;;;5084309;28;20025;-78
2021/04/13 06:49:23;;;;;;;7.83;2.63;;;2.70;89.90;;;;;;5046199;28;20127;-78
2021/04/13 06:51:57;;;;;;;12.27;3.00;;;2.80;89.90;;;;;;5071255;28;20029;-77
2021/04/13 06:54:22;;;;;;;9.18;2.55;;;2.80;89.90;;;;;;5087648;28;20412;-79
2021/04/13 06:57:11;;;;;;;9.97;3.20;;;2.90;90.00;;;;;;5092769;28;20107;-77
2021/04/13 07:00:07;;;;;;;13.27;2.87;;;3.00;89.90;;;;;;5078877;28;20058;-79
2021/04/13 07:02:50;;;;;;;6.73;2.77;;;3.10;90.00;;;;;;5054634;28;20021;-79
2021/04/13 07:05:32;;;;;;;9.23;2.93;;;3.10;90.00;;;;;;5072747;28;20043;-78
2021/04/13 07:08:08;;;;;;;8.97;2.90;;;3.20;90.20;;;;;;5054964;28;20629;-76
2021/04/13 07:10:43;;;;;;;12.57;3.80;;;3.30;90.20;;;;;;5072871;28;20103;-77
2021/04/13 07:13:20;;;;;;;9.03;2.70;;;3.40;90.20;;;;;;5055143;28;20016;-77
2021/04/13 07:15:57;;;;;;;9.10;2.97;;;3.40;90.10;;;;;;5055391;28;20387;-77
2021/04/13 07:18:56;;;;;;;8.63;3.03;;;3.50;90.10;;;;;;5076959;28;20024;-77
2021/04/13 07:21:43;;;;;;;8.43;2.30;;;3.60;90.40;;;;;;5059351;28;20103;-76
2021/04/13 07:24:22;;;;;;;10.73;2.43;;;3.70;90.20;;;;;;5058576;28;20032;-77
2021/04/13 07:27:13;;;;;;;8.37;1.73;;;3.70;90.00;;;;;;5076536;28;20032;-76
2021/04/13 07:29:59;;;;;;;11.63;2.33;;;3.80;90.00;;;;;;5076323;28;20024;-78
2021/04/13 07:32:25;;;;;;;8.57;1.90;;;3.90;89.70;;;;;;5077075;28;20029;-77
2021/04/13 07:34:58;;;;;;;8.23;2.20;;;4.00;89.60;;;;;;5076524;28;20414;-73
2021/04/13 07:37:31;;;;;;;10.87;2.27;;;4.10;89.50;;;;;;5076684;28;20028;-75
2021/04/13 07:39:59;;;;;;;9.67;2.07;;;4.20;89.30;;;;;;5076468;28;20467;-75
2021/04/13 07:42:32;;;;;;;13.93;2.63;;;4.30;89.20;;;;;;5075589;28;20053;-73
2021/04/13 07:45:16;;;;;;;10.60;2.10;;;4.40;88.90;;;;;;5076126;28;20105;-73
2021/04/13 07:48:04;;;;;;;6.95;2.28;;;4.50;88.60;;;;;;5058435;28;20024;-73
2021/04/13 07:50:59;;;;;;;11.33;1.90;;;4.60;88.40;;;;;;5058358;28;20036;-73
2021/04/13 07:54:03;;;;;;;10.27;1.30;;;4.70;88.00;;;;;;5067545;28;20046;-74
2021/04/13 07:56:48;;;;;;;9.00;1.20;;;4.80;87.60;;;;;;5076000;28;20033;-74
2021/04/13 07:59:42;;;;;;;6.40;1.30;;;4.90;86.50;;;;;;5058049;28;20050;-74
2021/04/13 08:02:08;;;;;;;6.00;1.00;;;5.00;86.30;;;;;;5075892;28;20057;-73
2021/04/13 08:04:34;;;;;;;10.83;0.93;;;5.20;85.80;;;;;;5057879;28;20052;-74
2021/04/13 08:07:26;;;;;;;8.93;1.27;;;5.30;84.20;;;;;;5058883;28;20017;-73
2021/04/13 08:09:54;;;;;;;6.63;0.70;;;5.40;83.20;;;;;;5057821;28;20498;-75
2021/04/13 08:12:30;;;;;;;7.33;0.87;;;5.40;81.00;;;;;;5075889;28;20467;-74
2021/04/13 08:14:56;;;;;;;4.40;0.60;;;5.60;79.10;;;;;;5057639;28;20024;-75
2021/04/13 08:17:24;;;;;;;6.93;0.60;;;5.70;77.70;;;;;;5057876;28;20378;-73
2021/04/13 08:20:01;;;;;;;4.67;0.60;;;5.80;78.40;;;;;;5075308;28;20052;-74
2021/04/13 08:22:28;;;;;;;4.57;0.57;;;6.00;78.20;;;;;;5057664;28;20111;-74
2021/04/13 08:24:58;;;;;;;8.50;1.20;;;6.10;78.00;;;;;;5075836;28;20017;-74
2021/04/13 08:27:48;;;;;;;5.53;0.80;;;6.20;77.20;;;;;;5075155;28;20025;-74
2021/04/13 08:30:42;;;;;;;3.43;0.60;;;6.30;77.50;;;;;;5075324;28;20039;-74
2021/04/13 08:33:23;;;;;;;5.75;0.52;;;6.40;75.80;;;;;;5075177;28;20028;-73
2021/04/13 08:36:26;;;;;;;4.10;0.50;;;6.50;75.50;;;;;;5075592;28;20037;-74
2021/04/13 08:39:24;;;;;;;4.47;0.60;;;6.60;75.00;;;;;;5057110;28;20062;-74
2021/04/13 08:42:18;;;;;;;5.60;0.73;;;6.70;74.80;;;;;;5056967;28;20085;-74
2021/04/13 08:44:49;;;;;;;;;;;6.80;73.60;;;;;;5057533;28;20056;-75
2021/04/13 08:47:45;;;;;;;5.53;0.57;;;6.90;72.60;;;;;;5075380;28;19904;-74
2021/04/13 08:50:31;;;;;;;5.33;0.50;;;7.00;71.50;;;;;;5053423;28;20135;-73
2021/04/13 08:53:05;;;;;;;3.47;0.60;;;7.10;69.90;;;;;;5074927;28;20032;-74
2021/04/13 08:55:37;;;;;;;3.40;0.55;;;7.20;69.20;;;;;;5074935;28;20475;-75
2021/04/13 08:58:38;;;;;;;7.83;0.83;;;7.30;69.40;;;;;;5074527;28;20033;-75
2021/04/13 09:01:21;;;;;;;7.20;0.63;;;7.30;67.50;;;;;;5056673;28;20506;-74
2021/04/13 09:03:46;;;;;;;8.17;0.80;;;7.40;67.70;;;;;;5056904;28;20020;-74
2021/04/13 09:06:52;;;;;;;5.57;0.70;;;7.40;66.70;;;;;;5056410;28;20550;-74
2021/04/13 09:09:32;;;;;;;6.43;0.53;;;7.50;66.00;;;;;;5054927;28;20040;-75
2021/04/13 09:12:16;;;;;;;4.93;0.50;;;7.50;63.40;;;;;;5074693;28;20060;-75
2021/04/13 09:14:59;;;;;;;3.43;0.40;;;7.50;62.00;;;;;;5074862;28;20020;-74
2021/04/13 09:17:34;;;;;;;4.43;0.60;;;7.50;62.20;;;;;;5074623;28;20025;-74
2021/04/13 09:20:37;;;;;;;0.80;0.30;;;7.60;63.10;;;;;;5074602;28;20283;-75
2021/04/13 09:23:28;;;;;;;5.63;0.40;;;7.80;63.50;;;;;;5074593;28;20024;-74
2021/04/13 09:26:22;;;;;;;5.47;0.60;;;7.90;63.70;;;;;;5069906;28;20024;-75
2021/04/13 09:28:53;;;;;;;4.17;0.50;;;8.00;61.80;;;;;;5071339;28;20028;-74
2021/04/13 09:31:28;;;;;;;2.30;0.30;;;8.10;61.10;;;;;;5093703;28;20029;-74
2021/04/13 09:34:05;;;;;;;;;;;8.10;61.10;;;;;;5076394;28;20039;-75
2021/04/13 09:36:37;;;;;;;3.70;0.57;;;8.40;61.60;;;;;;5075938;28;19904;-74
2021/04/13 09:39:11;;;;;;;10.10;0.80;;;8.60;61.40;;;;;;5075681;28;20040;-74
2021/04/13 09:41:53;;;;;;;7.30;1.03;;;8.60;59.10;;;;;;5093911;28;20032;-74
2021/04/13 09:44:37;;;;;;;4.10;0.70;;;8.70;58.80;;;;;;5093918;28;20048;-74
2021/04/13 09:47:18;;;;;;;4.15;0.50;;;8.70;58.60;;;;;;5094364;28;20089;-74
2021/04/13 09:50:05;;;;;;;6.87;0.67;;;8.80;59.10;;;;;;5094285;28;20016;-74
2021/04/13 09:52:49;;;;;;;5.27;0.70;;;9.00;59.40;;;;;;5076121;28;20024;-74
2021/04/13 09:55:41;;;;;;;2.30;0.43;;;9.20;59.00;;;;;;5093771;28;20028;-75
2021/04/13 09:58:25;;;;;;;2.67;0.50;;;9.50;58.70;;;;;;5093871;28;20020;-74
2021/04/13 10:01:16;;;;;;;6.82;0.55;;;9.60;58.00;;;;;;5093863;28;20036;-74
2021/04/13 10:03:41;;;;;;;3.33;0.40;;;9.60;55.80;;;;;;5074880;28;20089;-74
2021/04/13 10:06:12;;;;;;;4.67;0.60;;;9.50;54.70;;;;;;5093754;28;20019;-74
2021/04/13 10:08:45;;;;;;;4.07;0.40;;;9.60;53.20;;;;;;5075525;28;20020;-73
2021/04/13 10:11:29;;;;;;;3.37;0.40;;;9.60;54.10;;;;;;5075467;28;20027;-74
2021/04/13 10:14:40;;;;;;;5.60;0.50;;;9.80;53.40;;;;;;5075410;28;20028;-73
2021/04/13 10:17:30;;;;;;;4.87;0.60;;;10.20;53.80;;;;;;5024526;28;20037;-73
2021/04/13 10:20:10;;;;;;;6.17;0.60;;;10.70;54.00;;;;;;5073180;28;20025;-73
2021/04/13 10:22:55;;;;;;;5.33;0.40;;;11.00;52.10;;;;;;5078336;28;20016;-73
2021/04/13 10:25:30;;;;;;;5.50;0.68;;;10.90;50.00;;;;;;5079262;28;20512;-75
2021/04/13 10:28:20;;;;;;;6.47;0.40;;;10.70;50.30;;;;;;5084310;28;20031;-76
2021/04/13 10:30:52;;;;;;;5.63;0.70;;;11.10;49.50;;;;;;5058498;28;20032;-73
2021/04/13 10:33:21;;;;;;;2.50;0.32;;;11.70;50.40;;;;;;5072860;28;20024;-75
2021/04/13 10:36:14;;;;;;;1.67;0.20;;;12.50;50.00;;;;;;5054968;28;20089;-73
2021/04/13 10:39:17;;;;;;;4.32;0.60;;;13.30;50.00;;;;;;5072702;28;20177;-75
2021/04/13 10:42:20;;;;;;;4.10;0.68;;;14.50;49.10;;;;;;5087297;28;20040;-75
2021/04/13 10:45:28;;;;;;;3.00;0.60;;;15.50;47.20;;;;;;5054436;28;20132;-75
2021/04/13 10:48:02;;;;;;;2.58;0.30;;;16.30;45.80;;;;;;5059134;28;20556;-72
2021/04/13 10:50:57;;;;;;;3.63;0.40;;;16.70;46.50;;;;;;5071591;28;20048;-75
2021/04/13 10:53:29;;;;;;;5.60;0.60;;;16.60;45.60;;;;;;5054101;28;20055;-74
2021/04/13 10:56:15;;;;;;;2.25;0.40;;;16.40;46.00;;;;;;5072633;28;20013;-74
2021/04/13 10:59:01;;;;;;;0.93;0.22;;;16.30;44.90;;;;;;5071745;28;20112;-73
2021/04/13 11:01:54;;;;;;;2.47;0.25;;;16.30;44.50;;;;;;5073136;28;20037;-73
2021/04/13 11:04:48;;;;;;;2.75;0.20;;;16.40;43.80;;;;;;5072649;28;20054;-77
2021/04/13 11:08:09;;;;;;;2.67;0.40;;;16.30;43.20;;;;;;5072942;28;20024;-77
2021/04/13 11:11:06;;;;;;;4.22;0.35;;;16.20;42.70;;;;;;5053002;28;20029;-73
2021/04/13 11:14:17;;;;;;;1.10;0.20;;;16.10;42.40;;;;;;5051801;28;20040;-73
2021/04/13 11:17:06;;;;;;;1.58;0.30;;;16.20;42.10;;;;;;5048943;28;20476;-73
2021/04/13 11:19:44;;;;;;;4.05;0.38;;;16.30;41.80;;;;;;5052164;28;20029;-74
2021/04/13 11:22:12;;;;;;;2.90;0.28;;;16.50;41.90;;;;;;5051068;28;20514;-73
2021/04/13 11:24:38;;;;;;;3.33;0.40;;;16.70;41.70;;;;;;5051413;28;20057;-73
2021/04/13 11:27:31;;;;;;;1.40;0.32;;;16.80;41.20;;;;;;5052464;28;20454;-73
2021/04/13 11:30:10;;;;;;;2.45;0.30;;;16.80;40.60;;;;;;5051600;28;20025;-74
2021/04/13 11:33:03;;;;;;;3.80;0.30;;;17.10;40.20;;;;;;5052781;28;20354;-73
2021/04/13 11:35:37;;;;;;;3.17;0.40;;;17.20;39.80;;;;;;5051000;28;20032;-74
2021/04/13 11:38:09;;;;;;;2.38;0.30;;;17.10;39.20;;;;;;5052373;28;20036;-72
2021/04/13 11:40:51;;;;;;;2.00;0.32;;;17.00;38.00;;;;;;5051255;28;20039;-72
2021/04/13 11:43:23;;;;;;;1.98;0.30;;;16.80;38.00;;;;;;5055195;28;20419;-75
2021/04/13 11:46:20;;;;;;;4.30;0.22;;;16.70;37.80;;;;;;5071824;28;20095;-72
2021/04/13 11:49:00;;;;;;;1.00;0.20;;;16.60;37.30;;;;;;5072991;28;20060;-73
2021/04/13 11:51:45;;;;;;;1.67;0.30;;;16.50;37.20;;;;;;5072348;28;20033;-74
2021/04/13 11:54:29;;;;;;;;;;;16.50;37.40;;;;;;5072932;28;20115;-74
2021/04/13 11:57:01;;;;;;;1.33;0.27;;;16.60;37.50;;;;;;5072251;28;19904;-74
2021/04/13 11:59:27;;;;;;;0.70;0.20;;;16.80;37.80;;;;;;5072351;28;20443;-74
2021/04/13 12:01:58;;;;;;;1.98;0.30;;;17.00;37.40;;;;;;5038072;28;20120;-74
2021/04/13 12:04:40;;;;;;;1.65;0.30;;;17.10;37.00;;;;;;5057211;28;20028;-75
2021/04/13 12:07:07;;;;;;;1.45;0.22;;;17.10;36.70;;;;;;5075888;28;20098;-75
2021/04/13 12:10:01;;;;;;;1.85;0.30;;;16.90;36.30;;;;;;5075901;28;20082;-78
2021/04/13 12:12:30;;;;;;;2.78;0.30;;;16.80;34.90;;;;;;5058220;28;21018;-74
2021/04/13 12:15:02;;;;;;;3.63;0.30;;;16.70;35.40;;;;;;5075688;28;20026;-74
2021/04/13 12:17:37;;;;;;;1.80;0.32;;;16.70;35.40;;;;;;5057498;28;20024;-73
2021/04/13 12:20:28;;;;;;;1.42;0.40;;;16.70;35.20;;;;;;5057776;28;20111;-75
2021/04/13 12:23:09;;;;;;;1.77;0.20;;;16.70;35.20;;;;;;5057500;28;20032;-74
2021/04/13 12:25:42;;;;;;;1.92;0.50;;;16.90;35.30;;;;;;5057269;28;20028;-73
2021/04/13 12:28:16;;;;;;;2.80;0.70;;;17.10;35.50;;;;;;5075452;28;20375;-75
2021/04/13 12:30:41;;;;;;;1.58;0.30;;;17.40;35.30;;;;;;5075261;28;20029;-73
2021/04/13 12:33:30;;;;;;;1.83;0.40;;;17.40;35.30;;;;;;5057599;28;20028;-73
2021/04/13 12:35:59;;;;;;;1.58;0.35;;;17.20;35.30;;;;;;5074792;28;20483;-73
2021/04/13 12:38:46;;;;;;;2.55;0.28;;;17.10;35.40;;;;;;5075351;28;20032;-76
2021/04/13 12:41:28;;;;;;;1.58;0.30;;;16.90;35.10;;;;;;5074902;28;20024;-78
2021/04/13 12:44:17;;;;;;;1.15;0.20;;;16.60;34.70;;;;;;5074906;28;20044;-77
2021/04/13 12:46:49;;;;;;;1.75;0.30;;;16.50;35.00;;;;;;5074920;28;20021;-77
2021/04/13 12:49:14;;;;;;;2.30;0.40;;;16.50;35.30;;;;;;5056844;28;20471;-76
2021/04/13 12:52:15;;;;;;;1.50;0.20;;;16.80;35.50;;;;;;5078233;28;20036;-75
2021/04/13 12:54:42;;;;;;;4.05;0.50;;;17.20;35.50;;;;;;5055797;28;20040;-78
2021/04/13 12:57:22;;;;;;;2.80;0.32;;;17.50;35.70;;;;;;5075663;28;20040;-75
2021/04/13 12:59:50;;;;;;;2.22;0.30;;;17.60;35.30;;;;;;5061264;28;20135;-75
2021/04/13 13:02:34;;;;;;;4.68;0.45;;;17.50;35.20;;;;;;5080043;28;20048;-75
2021/04/13 13:05:00;;;;;;;1.60;0.40;;;17.40;35.10;;;;;;5076490;28;20021;-73
2021/04/13 13:07:29;;;;;;;3.08;0.30;;;17.30;35.10;;;;;;5036864;28;20385;-73
2021/04/13 13:09:56;;;;;;;2.15;0.30;;;17.10;35.00;;;;;;5052980;28;20073;-76
2021/04/13 13:12:29;;;;;;;1.48;0.20;;;17.10;35.20;;;;;;5066240;28;20468;-73
2021/04/13 13:15:10;;;;;;;2.58;0.32;;;17.30;35.40;;;;;;5074254;28;20089;-72
2021/04/13 13:17:42;;;;;;;2.95;0.30;;;17.40;35.00;;;;;;5064946;28;20064;-73
2021/04/13 13:20:29;;;;;;;1.52;0.28;;;17.60;35.10;;;;;;5057399;28;20029;-73
2021/04/13 13:22:55;;;;;;;1.75;0.30;;;17.80;34.90;;;;;;5078732;28;20429;-73
2021/04/13 13:25:32;;;;;;;3.72;0.30;;;17.90;35.00;;;;;;5055959;28;20052;-73
2021/04/13 13:28:22;;;;;;;2.05;0.30;;;17.80;34.50;;;;;;5071589;28;20508;-73
2021/04/13 13:30:49;;;;;;;2.90;0.28;;;17.50;34.60;;;;;;5087926;28;20057;-73
2021/04/13 13:33:20;;;;;;;3.20;0.40;;;17.20;34.80;;;;;;5062319;28;20099;-73
2021/04/13 13:35:46;;;;;;;2.42;0.40;;;17.00;35.00;;;;;;5064159;28;20028;-73
2021/04/13 13:38:20;;;;;;;1.52;0.30;;;16.70;34.80;;;;;;5056948;28;20472;-73
2021/04/13 13:40:46;;;;;;;2.63;0.30;;;16.60;35.00;;;;;;5068656;28;20021;-73
2021/04/13 13:43:20;;;;;;;3.45;0.30;;;16.70;35.10;;;;;;5059873;28;20075;-74
2021/04/13 13:45:48;;;;;;;4.15;0.38;;;16.80;35.00;;;;;;5093645;28;20232;-73